sensor_id;sensor_type;location;lat;lon;timestamp;P1;durP1;ratioP1;P2;durP2;ratioP2
52284;SDS011;38238;53.304;6.606;2023-02-03T00:01:17;9.90;;;4.75;;
52284;SDS011;38238;53.304;6.606;2023-02-03T00:03:43;12.23;;;4.45;;
52284;SDS011;38238;53.304;6.606;2023-02-03T00:06:09;6.82;;;4.30;;
52284;SDS011;38238;53.304;6.606;2023-02-03T00:08:35;9.52;;;4.50;;
52284;SDS011;38238;53.304;6.606;2023-02-03T00:11:02;9.80;;;4.75;;
52284;SDS011;38238;53.304;6.606;2023-02-03T00:13:28;7.95;;;3.42;;
52284;SDS011;38238;53.304;6.606;2023-02-03T00:15:54;7.18;;;3.60;;
52284;SDS011;38238;53.304;6.606;2023-02-03T00:18:20;9.98;;;3.85;;
52284;SDS011;38238;53.304;6.606;2023-02-03T00:20:46;6.43;;;4.13;;
52284;SDS011;38238;53.304;6.606;2023-02-03T00:23:11;9.77;;;4.55;;
52284;SDS011;38238;53.304;6.606;2023-02-03T00:25:37;9.70;;;3.50;;
52284;SDS011;38238;53.304;6.606;2023-02-03T00:28:04;9.23;;;4.68;;
52284;SDS011;38238;53.304;6.606;2023-02-03T00:30:32;8.10;;;4.38;;
52284;SDS011;38238;53.304;6.606;2023-02-03T00:32:59;7.63;;;3.83;;
52284;SDS011;38238;53.304;6.606;2023-02-03T00:35:26;9.48;;;3.88;;
52284;SDS011;38238;53.304;6.606;2023-02-03T00:37:54;6.65;;;4.00;;
52284;SDS011;38238;53.304;6.606;2023-02-03T00:40:22;9.55;;;3.42;;
52284;SDS011;38238;53.304;6.606;2023-02-03T00:42:49;8.77;;;4.55;;
52284;SDS011;38238;53.304;6.606;2023-02-03T00:45:15;11.70;;;5.25;;
52284;SDS011;38238;53.304;6.606;2023-02-03T00:47:41;11.95;;;4.85;;
52284;SDS011;38238;53.304;6.606;2023-02-03T00:50:07;8.27;;;4.05;;
52284;SDS011;38238;53.304;6.606;2023-02-03T00:52:33;11.25;;;4.30;;
52284;SDS011;38238;53.304;6.606;2023-02-03T00:54:59;9.38;;;4.07;;
52284;SDS011;38238;53.304;6.606;2023-02-03T00:57:25;9.40;;;3.70;;
52284;SDS011;38238;53.304;6.606;2023-02-03T00:59:50;8.95;;;3.95;;
52284;SDS011;38238;53.304;6.606;2023-02-03T01:02:16;10.45;;;3.92;;
52284;SDS011;38238;53.304;6.606;2023-02-03T01:04:42;9.25;;;4.05;;
52284;SDS011;38238;53.304;6.606;2023-02-03T01:07:08;9.73;;;4.47;;
52284;SDS011;38238;53.304;6.606;2023-02-03T01:09:34;8.38;;;4.25;;
52284;SDS011;38238;53.304;6.606;2023-02-03T01:12:01;8.85;;;3.90;;
52284;SDS011;38238;53.304;6.606;2023-02-03T01:14:28;9.10;;;3.47;;
52284;SDS011;38238;53.304;6.606;2023-02-03T01:16:54;10.57;;;4.45;;
52284;SDS011;38238;53.304;6.606;2023-02-03T01:19:19;9.70;;;4.40;;
52284;SDS011;38238;53.304;6.606;2023-02-03T01:21:45;12.27;;;4.35;;
52284;SDS011;38238;53.304;6.606;2023-02-03T01:24:11;9.40;;;3.97;;
52284;SDS011;38238;53.304;6.606;2023-02-03T01:26:39;6.72;;;3.83;;
52284;SDS011;38238;53.304;6.606;2023-02-03T01:29:05;9.80;;;3.60;;
52284;SDS011;38238;53.304;6.606;2023-02-03T01:31:33;9.95;;;3.90;;
52284;SDS011;38238;53.304;6.606;2023-02-03T01:34:01;9.85;;;4.25;;
52284;SDS011;38238;53.304;6.606;2023-02-03T01:36:28;10.10;;;4.22;;
52284;SDS011;38238;53.304;6.606;2023-02-03T01:38:55;7.22;;;3.70;;
52284;SDS011;38238;53.304;6.606;2023-02-03T01:41:22;8.65;;;4.40;;
52284;SDS011;38238;53.304;6.606;2023-02-03T01:43:51;8.20;;;4.50;;
52284;SDS011;38238;53.304;6.606;2023-02-03T01:49:14;11.55;;;4.03;;
52284;SDS011;38238;53.304;6.606;2023-02-03T01:51:45;8.25;;;4.68;;
52284;SDS011;38238;53.304;6.606;2023-02-03T01:54:12;9.75;;;4.20;;
52284;SDS011;38238;53.304;6.606;2023-02-03T01:56:43;10.82;;;4.68;;
52284;SDS011;38238;53.304;6.606;2023-02-03T01:59:12;9.18;;;5.22;;
52284;SDS011;38238;53.304;6.606;2023-02-03T02:01:41;10.32;;;4.15;;
52284;SDS011;38238;53.304;6.606;2023-02-03T02:04:07;10.00;;;5.38;;
52284;SDS011;38238;53.304;6.606;2023-02-03T02:06:34;10.30;;;3.90;;
52284;SDS011;38238;53.304;6.606;2023-02-03T02:08:59;11.13;;;5.30;;
52284;SDS011;38238;53.304;6.606;2023-02-03T02:11:26;7.40;;;4.32;;
52284;SDS011;38238;53.304;6.606;2023-02-03T02:13:52;11.68;;;4.80;;
52284;SDS011;38238;53.304;6.606;2023-02-03T02:26:56;7.78;;;4.32;;
52284;SDS011;38238;53.304;6.606;2023-02-03T02:32:35;9.38;;;5.28;;
52284;SDS011;38238;53.304;6.606;2023-02-03T02:40:35;12.05;;;5.55;;
52284;SDS011;38238;53.304;6.606;2023-02-03T02:43:17;12.82;;;4.82;;
52284;SDS011;38238;53.304;6.606;2023-02-03T02:45:47;10.02;;;4.90;;
52284;SDS011;38238;53.304;6.606;2023-02-03T02:48:17;14.05;;;5.15;;
52284;SDS011;38238;53.304;6.606;2023-02-03T02:50:56;13.23;;;5.68;;
52284;SDS011;38238;53.304;6.606;2023-02-03T02:53:25;8.98;;;4.60;;
52284;SDS011;38238;53.304;6.606;2023-02-03T02:55:56;10.13;;;5.28;;
52284;SDS011;38238;53.304;6.606;2023-02-03T02:58:24;9.15;;;4.55;;
52284;SDS011;38238;53.304;6.606;2023-02-03T03:00:52;10.90;;;4.50;;
52284;SDS011;38238;53.304;6.606;2023-02-03T03:03:19;9.98;;;5.97;;
52284;SDS011;38238;53.304;6.606;2023-02-03T03:05:49;11.23;;;5.25;;
52284;SDS011;38238;53.304;6.606;2023-02-03T03:08:26;9.70;;;4.97;;
52284;SDS011;38238;53.304;6.606;2023-02-03T03:11:00;12.18;;;4.65;;
52284;SDS011;38238;53.304;6.606;2023-02-03T03:13:29;11.77;;;4.82;;
52284;SDS011;38238;53.304;6.606;2023-02-03T03:15:58;6.88;;;4.18;;
52284;SDS011;38238;53.304;6.606;2023-02-03T03:18:29;10.35;;;5.63;;
52284;SDS011;38238;53.304;6.606;2023-02-03T03:20:58;13.15;;;5.53;;
52284;SDS011;38238;53.304;6.606;2023-02-03T03:23:34;8.30;;;5.00;;
52284;SDS011;38238;53.304;6.606;2023-02-03T03:29:10;12.90;;;5.45;;
52284;SDS011;38238;53.304;6.606;2023-02-03T03:31:42;10.05;;;5.15;;
52284;SDS011;38238;53.304;6.606;2023-02-03T03:34:09;9.85;;;4.90;;
52284;SDS011;38238;53.304;6.606;2023-02-03T03:36:39;17.58;;;5.53;;
52284;SDS011;38238;53.304;6.606;2023-02-03T03:42:05;11.57;;;5.07;;
52284;SDS011;38238;53.304;6.606;2023-02-03T03:44:44;12.27;;;6.28;;
52284;SDS011;38238;53.304;6.606;2023-02-03T03:48:05;11.27;;;6.32;;
52284;SDS011;38238;53.304;6.606;2023-02-03T03:50:11;13.15;;;5.95;;
52284;SDS011;38238;53.304;6.606;2023-02-03T03:52:40;12.98;;;6.10;;
52284;SDS011;38238;53.304;6.606;2023-02-03T03:55:08;8.88;;;6.13;;
52284;SDS011;38238;53.304;6.606;2023-02-03T03:57:40;10.57;;;4.82;;
52284;SDS011;38238;53.304;6.606;2023-02-03T04:00:19;13.77;;;5.18;;
52284;SDS011;38238;53.304;6.606;2023-02-03T04:02:49;14.98;;;5.70;;
52284;SDS011;38238;53.304;6.606;2023-02-03T04:05:18;11.55;;;6.47;;
52284;SDS011;38238;53.304;6.606;2023-02-03T04:07:45;14.60;;;5.97;;
52284;SDS011;38238;53.304;6.606;2023-02-03T04:10:33;16.05;;;5.95;;
52284;SDS011;38238;53.304;6.606;2023-02-03T04:13:01;10.63;;;5.97;;
52284;SDS011;38238;53.304;6.606;2023-02-03T04:15:30;12.30;;;4.35;;
52284;SDS011;38238;53.304;6.606;2023-02-03T04:17:56;13.93;;;5.57;;
52284;SDS011;38238;53.304;6.606;2023-02-03T04:20:22;9.18;;;5.30;;
52284;SDS011;38238;53.304;6.606;2023-02-03T04:22:49;10.85;;;6.20;;
52284;SDS011;38238;53.304;6.606;2023-02-03T04:25:15;10.57;;;4.38;;
52284;SDS011;38238;53.304;6.606;2023-02-03T04:27:40;12.43;;;5.97;;
52284;SDS011;38238;53.304;6.606;2023-02-03T04:30:07;8.10;;;4.25;;
52284;SDS011;38238;53.304;6.606;2023-02-03T04:32:33;9.10;;;4.65;;
52284;SDS011;38238;53.304;6.606;2023-02-03T04:34:59;10.65;;;4.45;;
52284;SDS011;38238;53.304;6.606;2023-02-03T04:37:25;8.55;;;4.05;;
52284;SDS011;38238;53.304;6.606;2023-02-03T04:39:52;7.82;;;5.40;;
52284;SDS011;38238;53.304;6.606;2023-02-03T04:42:19;9.40;;;4.80;;
52284;SDS011;38238;53.304;6.606;2023-02-03T04:44:45;13.35;;;4.78;;
52284;SDS011;38238;53.304;6.606;2023-02-03T04:47:11;6.65;;;4.40;;
52284;SDS011;38238;53.304;6.606;2023-02-03T04:49:37;12.07;;;4.80;;
52284;SDS011;38238;53.304;6.606;2023-02-03T04:52:03;8.88;;;4.82;;
52284;SDS011;38238;53.304;6.606;2023-02-03T04:54:29;9.43;;;4.72;;
52284;SDS011;38238;53.304;6.606;2023-02-03T04:56:55;15.20;;;7.57;;
52284;SDS011;38238;53.304;6.606;2023-02-03T04:59:20;13.07;;;5.57;;
52284;SDS011;38238;53.304;6.606;2023-02-03T05:01:46;13.45;;;6.22;;
52284;SDS011;38238;53.304;6.606;2023-02-03T05:04:12;12.70;;;5.85;;
52284;SDS011;38238;53.304;6.606;2023-02-03T05:06:38;10.98;;;5.20;;
52284;SDS011;38238;53.304;6.606;2023-02-03T05:09:03;7.70;;;5.53;;
52284;SDS011;38238;53.304;6.606;2023-02-03T05:11:30;9.55;;;5.03;;
52284;SDS011;38238;53.304;6.606;2023-02-03T05:13:56;8.82;;;4.53;;
52284;SDS011;38238;53.304;6.606;2023-02-03T05:16:24;10.00;;;5.32;;
52284;SDS011;38238;53.304;6.606;2023-02-03T05:18:50;10.93;;;5.57;;
52284;SDS011;38238;53.304;6.606;2023-02-03T05:21:16;10.02;;;5.03;;
52284;SDS011;38238;53.304;6.606;2023-02-03T05:23:42;14.43;;;6.03;;
52284;SDS011;38238;53.304;6.606;2023-02-03T05:26:08;10.85;;;5.38;;
52284;SDS011;38238;53.304;6.606;2023-02-03T05:28:33;9.68;;;4.80;;
52284;SDS011;38238;53.304;6.606;2023-02-03T05:31:00;11.77;;;6.93;;
52284;SDS011;38238;53.304;6.606;2023-02-03T05:33:26;16.95;;;5.78;;
52284;SDS011;38238;53.304;6.606;2023-02-03T05:35:53;10.35;;;5.70;;
52284;SDS011;38238;53.304;6.606;2023-02-03T05:38:18;8.80;;;5.95;;
52284;SDS011;38238;53.304;6.606;2023-02-03T05:40:48;11.05;;;5.63;;
52284;SDS011;38238;53.304;6.606;2023-02-03T05:43:33;9.48;;;4.85;;
52284;SDS011;38238;53.304;6.606;2023-02-03T05:45:59;13.55;;;5.32;;
52284;SDS011;38238;53.304;6.606;2023-02-03T05:48:25;13.50;;;7.35;;
52284;SDS011;38238;53.304;6.606;2023-02-03T05:50:51;13.70;;;5.72;;
52284;SDS011;38238;53.304;6.606;2023-02-03T05:53:17;17.70;;;7.35;;
52284;SDS011;38238;53.304;6.606;2023-02-03T05:55:43;9.88;;;5.10;;
52284;SDS011;38238;53.304;6.606;2023-02-03T05:58:08;14.63;;;7.13;;
52284;SDS011;38238;53.304;6.606;2023-02-03T06:00:34;13.65;;;7.25;;
52284;SDS011;38238;53.304;6.606;2023-02-03T06:03:00;11.30;;;5.68;;
52284;SDS011;38238;53.304;6.606;2023-02-03T06:05:28;15.20;;;6.50;;
52284;SDS011;38238;53.304;6.606;2023-02-03T06:07:55;11.68;;;6.53;;
52284;SDS011;38238;53.304;6.606;2023-02-03T06:10:21;16.25;;;7.82;;
52284;SDS011;38238;53.304;6.606;2023-02-03T06:12:47;12.55;;;6.20;;
52284;SDS011;38238;53.304;6.606;2023-02-03T06:15:14;14.45;;;6.72;;
52284;SDS011;38238;53.304;6.606;2023-02-03T06:17:42;18.05;;;8.57;;
52284;SDS011;38238;53.304;6.606;2023-02-03T06:20:10;17.88;;;7.20;;
52284;SDS011;38238;53.304;6.606;2023-02-03T06:22:36;15.00;;;7.65;;
52284;SDS011;38238;53.304;6.606;2023-02-03T06:25:02;18.10;;;8.13;;
52284;SDS011;38238;53.304;6.606;2023-02-03T06:27:28;17.33;;;6.05;;
52284;SDS011;38238;53.304;6.606;2023-02-03T06:29:54;16.42;;;6.95;;
52284;SDS011;38238;53.304;6.606;2023-02-03T06:32:20;14.10;;;6.88;;
52284;SDS011;38238;53.304;6.606;2023-02-03T06:34:45;18.15;;;6.53;;
52284;SDS011;38238;53.304;6.606;2023-02-03T06:37:11;14.73;;;6.53;;
52284;SDS011;38238;53.304;6.606;2023-02-03T06:39:37;20.77;;;6.78;;
52284;SDS011;38238;53.304;6.606;2023-02-03T06:42:03;16.83;;;6.70;;
52284;SDS011;38238;53.304;6.606;2023-02-03T06:44:28;14.88;;;5.85;;
52284;SDS011;38238;53.304;6.606;2023-02-03T06:46:54;15.52;;;6.28;;
52284;SDS011;38238;53.304;6.606;2023-02-03T06:49:20;16.75;;;6.50;;
52284;SDS011;38238;53.304;6.606;2023-02-03T06:51:46;18.20;;;6.75;;
52284;SDS011;38238;53.304;6.606;2023-02-03T06:54:12;16.67;;;6.35;;
52284;SDS011;38238;53.304;6.606;2023-02-03T06:56:38;25.48;;;6.78;;
52284;SDS011;38238;53.304;6.606;2023-02-03T06:59:04;17.95;;;6.05;;
52284;SDS011;38238;53.304;6.606;2023-02-03T07:01:30;21.27;;;8.05;;
52284;SDS011;38238;53.304;6.606;2023-02-03T07:03:56;18.98;;;7.43;;
52284;SDS011;38238;53.304;6.606;2023-02-03T07:06:26;14.45;;;6.35;;
52284;SDS011;38238;53.304;6.606;2023-02-03T07:08:55;16.13;;;7.78;;
52284;SDS011;38238;53.304;6.606;2023-02-03T07:11:21;16.50;;;7.63;;
52284;SDS011;38238;53.304;6.606;2023-02-03T07:13:47;28.27;;;7.40;;
52284;SDS011;38238;53.304;6.606;2023-02-03T07:16:13;26.10;;;7.28;;
52284;SDS011;38238;53.304;6.606;2023-02-03T07:18:39;16.63;;;6.50;;
52284;SDS011;38238;53.304;6.606;2023-02-03T07:21:05;18.83;;;7.32;;
52284;SDS011;38238;53.304;6.606;2023-02-03T07:23:31;26.02;;;7.78;;
52284;SDS011;38238;53.304;6.606;2023-02-03T07:26:01;22.45;;;8.10;;
52284;SDS011;38238;53.304;6.606;2023-02-03T07:28:29;21.48;;;6.90;;
52284;SDS011;38238;53.304;6.606;2023-02-03T07:30:55;20.70;;;8.23;;
52284;SDS011;38238;53.304;6.606;2023-02-03T07:33:22;22.98;;;7.03;;
52284;SDS011;38238;53.304;6.606;2023-02-03T07:35:51;26.27;;;9.07;;
52284;SDS011;38238;53.304;6.606;2023-02-03T07:38:21;20.25;;;7.63;;
52284;SDS011;38238;53.304;6.606;2023-02-03T07:40:47;19.67;;;7.72;;
52284;SDS011;38238;53.304;6.606;2023-02-03T07:43:13;22.65;;;8.00;;
52284;SDS011;38238;53.304;6.606;2023-02-03T07:45:39;16.67;;;7.57;;
52284;SDS011;38238;53.304;6.606;2023-02-03T07:48:05;22.83;;;8.85;;
52284;SDS011;38238;53.304;6.606;2023-02-03T07:50:30;16.65;;;8.15;;
52284;SDS011;38238;53.304;6.606;2023-02-03T07:52:57;26.13;;;8.32;;
52284;SDS011;38238;53.304;6.606;2023-02-03T07:55:23;22.92;;;8.52;;
52284;SDS011;38238;53.304;6.606;2023-02-03T07:57:49;22.45;;;8.68;;
52284;SDS011;38238;53.304;6.606;2023-02-03T08:00:18;24.00;;;8.55;;
52284;SDS011;38238;53.304;6.606;2023-02-03T08:02:44;26.00;;;8.13;;
52284;SDS011;38238;53.304;6.606;2023-02-03T08:05:11;21.58;;;7.78;;
52284;SDS011;38238;53.304;6.606;2023-02-03T08:07:37;25.23;;;8.52;;
52284;SDS011;38238;53.304;6.606;2023-02-03T08:10:03;33.28;;;9.27;;
52284;SDS011;38238;53.304;6.606;2023-02-03T08:12:29;20.63;;;8.95;;
52284;SDS011;38238;53.304;6.606;2023-02-03T08:14:55;25.10;;;7.65;;
52284;SDS011;38238;53.304;6.606;2023-02-03T08:17:21;22.58;;;9.18;;
52284;SDS011;38238;53.304;6.606;2023-02-03T08:19:46;26.00;;;8.70;;
52284;SDS011;38238;53.304;6.606;2023-02-03T08:22:12;34.30;;;10.80;;
52284;SDS011;38238;53.304;6.606;2023-02-03T08:24:43;27.45;;;9.93;;
52284;SDS011;38238;53.304;6.606;2023-02-03T08:27:14;19.83;;;8.20;;
52284;SDS011;38238;53.304;6.606;2023-02-03T08:29:42;21.55;;;8.40;;
52284;SDS011;38238;53.304;6.606;2023-02-03T08:32:18;24.38;;;9.50;;
52284;SDS011;38238;53.304;6.606;2023-02-03T08:34:46;19.35;;;9.25;;
52284;SDS011;38238;53.304;6.606;2023-02-03T08:37:13;27.77;;;8.18;;
52284;SDS011;38238;53.304;6.606;2023-02-03T08:39:40;25.92;;;10.10;;
52284;SDS011;38238;53.304;6.606;2023-02-03T08:42:06;30.27;;;8.65;;
52284;SDS011;38238;53.304;6.606;2023-02-03T08:44:32;22.10;;;9.07;;
52284;SDS011;38238;53.304;6.606;2023-02-03T08:46:59;27.77;;;9.95;;
52284;SDS011;38238;53.304;6.606;2023-02-03T08:49:25;24.08;;;10.10;;
52284;SDS011;38238;53.304;6.606;2023-02-03T08:51:54;25.23;;;8.95;;
52284;SDS011;38238;53.304;6.606;2023-02-03T08:54:20;29.00;;;8.43;;
52284;SDS011;38238;53.304;6.606;2023-02-03T08:56:46;24.80;;;8.23;;
52284;SDS011;38238;53.304;6.606;2023-02-03T08:59:12;17.48;;;8.35;;
52284;SDS011;38238;53.304;6.606;2023-02-03T09:01:39;25.65;;;7.82;;
52284;SDS011;38238;53.304;6.606;2023-02-03T09:04:05;27.88;;;9.30;;
52284;SDS011;38238;53.304;6.606;2023-02-03T09:06:33;25.88;;;9.27;;
52284;SDS011;38238;53.304;6.606;2023-02-03T09:09:00;27.33;;;9.77;;
52284;SDS011;38238;53.304;6.606;2023-02-03T09:11:25;33.45;;;9.80;;
52284;SDS011;38238;53.304;6.606;2023-02-03T09:13:51;27.80;;;9.25;;
52284;SDS011;38238;53.304;6.606;2023-02-03T09:16:18;28.17;;;8.35;;
52284;SDS011;38238;53.304;6.606;2023-02-03T09:18:47;24.05;;;8.63;;
52284;SDS011;38238;53.304;6.606;2023-02-03T09:21:13;36.17;;;9.38;;
52284;SDS011;38238;53.304;6.606;2023-02-03T09:23:41;22.30;;;8.63;;
52284;SDS011;38238;53.304;6.606;2023-02-03T09:26:08;31.13;;;8.82;;
52284;SDS011;38238;53.304;6.606;2023-02-03T09:28:36;21.90;;;7.93;;
52284;SDS011;38238;53.304;6.606;2023-02-03T09:31:03;24.40;;;8.00;;
52284;SDS011;38238;53.304;6.606;2023-02-03T09:33:33;30.33;;;9.45;;
52284;SDS011;38238;53.304;6.606;2023-02-03T09:35:59;31.83;;;9.13;;
52284;SDS011;38238;53.304;6.606;2023-02-03T09:38:25;27.25;;;8.93;;
52284;SDS011;38238;53.304;6.606;2023-02-03T09:40:52;27.45;;;8.95;;
52284;SDS011;38238;53.304;6.606;2023-02-03T09:46:36;30.52;;;8.95;;
52284;SDS011;38238;53.304;6.606;2023-02-03T09:48:58;38.90;;;9.73;;
52284;SDS011;38238;53.304;6.606;2023-02-03T09:51:31;25.25;;;8.10;;
52284;SDS011;38238;53.304;6.606;2023-02-03T09:54:44;28.00;;;8.57;;
52284;SDS011;38238;53.304;6.606;2023-02-03T09:56:54;25.52;;;9.55;;
52284;SDS011;38238;53.304;6.606;2023-02-03T09:59:23;30.23;;;9.32;;
52284;SDS011;38238;53.304;6.606;2023-02-03T10:04:58;33.42;;;9.38;;
52284;SDS011;38238;53.304;6.606;2023-02-03T10:07:46;35.17;;;9.88;;
52284;SDS011;38238;53.304;6.606;2023-02-03T10:10:21;29.00;;;11.33;;
52284;SDS011;38238;53.304;6.606;2023-02-03T10:16:06;34.20;;;9.63;;
52284;SDS011;38238;53.304;6.606;2023-02-03T10:18:54;30.67;;;9.07;;
52284;SDS011;38238;53.304;6.606;2023-02-03T10:21:36;28.88;;;9.88;;
52284;SDS011;38238;53.304;6.606;2023-02-03T10:24:10;29.20;;;10.52;;
52284;SDS011;38238;53.304;6.606;2023-02-03T10:26:39;32.13;;;10.05;;
52284;SDS011;38238;53.304;6.606;2023-02-03T10:32:12;28.88;;;10.25;;
52284;SDS011;38238;53.304;6.606;2023-02-03T10:34:38;35.05;;;10.18;;
52284;SDS011;38238;53.304;6.606;2023-02-03T10:37:21;30.65;;;9.85;;
52284;SDS011;38238;53.304;6.606;2023-02-03T10:40:01;31.08;;;9.52;;
52284;SDS011;38238;53.304;6.606;2023-02-03T10:42:28;32.63;;;10.70;;
52284;SDS011;38238;53.304;6.606;2023-02-03T10:45:15;33.65;;;10.73;;
52284;SDS011;38238;53.304;6.606;2023-02-03T10:47:49;34.58;;;10.93;;
52284;SDS011;38238;53.304;6.606;2023-02-03T10:50:21;28.45;;;10.82;;
52284;SDS011;38238;53.304;6.606;2023-02-03T10:53:40;36.13;;;11.32;;
52284;SDS011;38238;53.304;6.606;2023-02-03T10:58:31;34.58;;;10.55;;
52284;SDS011;38238;53.304;6.606;2023-02-03T11:03:34;35.45;;;9.80;;
52284;SDS011;38238;53.304;6.606;2023-02-03T11:06:04;29.65;;;10.32;;
52284;SDS011;38238;53.304;6.606;2023-02-03T11:08:36;32.20;;;11.20;;
52284;SDS011;38238;53.304;6.606;2023-02-03T11:11:05;32.85;;;10.80;;
52284;SDS011;38238;53.304;6.606;2023-02-03T11:13:33;32.42;;;10.25;;
52284;SDS011;38238;53.304;6.606;2023-02-03T11:21:11;32.60;;;10.45;;
52284;SDS011;38238;53.304;6.606;2023-02-03T11:27:02;42.10;;;11.73;;
52284;SDS011;38238;53.304;6.606;2023-02-03T11:29:32;39.20;;;11.02;;
52284;SDS011;38238;53.304;6.606;2023-02-03T11:32:01;29.05;;;10.93;;
52284;SDS011;38238;53.304;6.606;2023-02-03T11:34:31;35.28;;;10.85;;
52284;SDS011;38238;53.304;6.606;2023-02-03T11:37:26;37.70;;;10.15;;
52284;SDS011;38238;53.304;6.606;2023-02-03T11:39:56;38.33;;;11.68;;
52284;SDS011;38238;53.304;6.606;2023-02-03T11:42:31;46.80;;;11.93;;
52284;SDS011;38238;53.304;6.606;2023-02-03T11:45:14;35.88;;;11.43;;
52284;SDS011;38238;53.304;6.606;2023-02-03T11:47:53;34.25;;;11.02;;
52284;SDS011;38238;53.304;6.606;2023-02-03T11:50:28;37.85;;;12.25;;
52284;SDS011;38238;53.304;6.606;2023-02-03T12:18:49;29.55;;;10.25;;
52284;SDS011;38238;53.304;6.606;2023-02-03T12:29:52;31.30;;;9.93;;
52284;SDS011;38238;53.304;6.606;2023-02-03T12:32:28;30.50;;;10.97;;
52284;SDS011;38238;53.304;6.606;2023-02-03T12:40:04;23.38;;;9.43;;
52284;SDS011;38238;53.304;6.606;2023-02-03T12:42:56;26.77;;;9.18;;
52284;SDS011;38238;53.304;6.606;2023-02-03T12:45:28;26.48;;;10.35;;
52284;SDS011;38238;53.304;6.606;2023-02-03T12:48:00;33.50;;;9.32;;
52284;SDS011;38238;53.304;6.606;2023-02-03T12:56:01;25.13;;;9.18;;
52284;SDS011;38238;53.304;6.606;2023-02-03T12:58:44;34.97;;;12.30;;
52284;SDS011;38238;53.304;6.606;2023-02-03T13:01:22;33.90;;;11.48;;
52284;SDS011;38238;53.304;6.606;2023-02-03T13:12:26;41.25;;;12.20;;
52284;SDS011;38238;53.304;6.606;2023-02-03T13:18:07;38.67;;;11.10;;
52284;SDS011;38238;53.304;6.606;2023-02-03T13:20:39;34.65;;;12.02;;
52284;SDS011;38238;53.304;6.606;2023-02-03T13:23:06;39.05;;;12.68;;
52284;SDS011;38238;53.304;6.606;2023-02-03T13:31:24;32.25;;;11.95;;
52284;SDS011;38238;53.304;6.606;2023-02-03T13:35:20;32.42;;;11.93;;
52284;SDS011;38238;53.304;6.606;2023-02-03T13:43:10;31.52;;;11.20;;
52284;SDS011;38238;53.304;6.606;2023-02-03T13:45:43;29.98;;;10.55;;
52284;SDS011;38238;53.304;6.606;2023-02-03T13:48:21;35.30;;;11.70;;
52284;SDS011;38238;53.304;6.606;2023-02-03T13:50:50;34.28;;;10.75;;
52284;SDS011;38238;53.304;6.606;2023-02-03T13:53:34;40.53;;;11.55;;
52284;SDS011;38238;53.304;6.606;2023-02-03T13:56:02;40.05;;;10.75;;
52284;SDS011;38238;53.304;6.606;2023-02-03T13:58:31;33.15;;;10.30;;
52284;SDS011;38238;53.304;6.606;2023-02-03T14:01:00;27.38;;;9.52;;
52284;SDS011;38238;53.304;6.606;2023-02-03T14:05:55;34.83;;;10.52;;
52284;SDS011;38238;53.304;6.606;2023-02-03T14:14:00;33.88;;;11.15;;
52284;SDS011;38238;53.304;6.606;2023-02-03T14:16:40;45.60;;;14.83;;
52284;SDS011;38238;53.304;6.606;2023-02-03T14:22:01;29.85;;;9.63;;
52284;SDS011;38238;53.304;6.606;2023-02-03T14:24:30;30.63;;;15.30;;
52284;SDS011;38238;53.304;6.606;2023-02-03T14:26:56;27.20;;;9.35;;
52284;SDS011;38238;53.304;6.606;2023-02-03T14:29:27;33.53;;;9.63;;
52284;SDS011;38238;53.304;6.606;2023-02-03T14:32:00;35.53;;;10.88;;
52284;SDS011;38238;53.304;6.606;2023-02-03T14:37:13;26.80;;;9.45;;
52284;SDS011;38238;53.304;6.606;2023-02-03T14:58:04;30.63;;;10.38;;
52284;SDS011;38238;53.304;6.606;2023-02-03T15:00:40;29.45;;;9.75;;
52284;SDS011;38238;53.304;6.606;2023-02-03T15:10:59;31.40;;;10.40;;
52284;SDS011;38238;53.304;6.606;2023-02-03T15:13:38;24.17;;;8.25;;
52284;SDS011;38238;53.304;6.606;2023-02-03T15:16:04;31.38;;;9.48;;
52284;SDS011;38238;53.304;6.606;2023-02-03T15:18:36;32.35;;;9.43;;
52284;SDS011;38238;53.304;6.606;2023-02-03T15:21:04;24.30;;;9.48;;
52284;SDS011;38238;53.304;6.606;2023-02-03T15:23:37;23.91;;;8.44;;
52284;SDS011;38238;53.304;6.606;2023-02-03T15:28:43;27.77;;;8.43;;
52284;SDS011;38238;53.304;6.606;2023-02-03T15:31:23;26.85;;;8.65;;
52284;SDS011;38238;53.304;6.606;2023-02-03T15:34:03;28.80;;;9.85;;
52284;SDS011;38238;53.304;6.606;2023-02-03T15:36:38;27.08;;;9.77;;
52284;SDS011;38238;53.304;6.606;2023-02-03T15:39:22;22.55;;;7.53;;
52284;SDS011;38238;53.304;6.606;2023-02-03T15:42:11;28.75;;;8.48;;
52284;SDS011;38238;53.304;6.606;2023-02-03T15:44:55;22.15;;;7.63;;
52284;SDS011;38238;53.304;6.606;2023-02-03T15:50:32;24.27;;;7.78;;
52284;SDS011;38238;53.304;6.606;2023-02-03T15:53:07;21.67;;;9.00;;
52284;SDS011;38238;53.304;6.606;2023-02-03T15:55:43;28.13;;;9.73;;
52284;SDS011;38238;53.304;6.606;2023-02-03T15:58:20;31.38;;;8.55;;
52284;SDS011;38238;53.304;6.606;2023-02-03T16:00:59;29.05;;;9.68;;
52284;SDS011;38238;53.304;6.606;2023-02-03T16:03:32;29.58;;;8.23;;
52284;SDS011;38238;53.304;6.606;2023-02-03T16:06:10;25.23;;;9.75;;
52284;SDS011;38238;53.304;6.606;2023-02-03T16:08:54;25.40;;;8.68;;
52284;SDS011;38238;53.304;6.606;2023-02-03T16:11:22;36.17;;;9.95;;
52284;SDS011;38238;53.304;6.606;2023-02-03T16:13:50;32.75;;;11.00;;
52284;SDS011;38238;53.304;6.606;2023-02-03T16:18:49;37.78;;;14.32;;
52284;SDS011;38238;53.304;6.606;2023-02-03T16:21:23;28.48;;;9.82;;
52284;SDS011;38238;53.304;6.606;2023-02-03T16:23:52;30.75;;;11.10;;
52284;SDS011;38238;53.304;6.606;2023-02-03T16:26:18;42.75;;;15.25;;
52284;SDS011;38238;53.304;6.606;2023-02-03T16:32:13;32.83;;;9.88;;
52284;SDS011;38238;53.304;6.606;2023-02-03T16:35:01;33.67;;;10.40;;
52284;SDS011;38238;53.304;6.606;2023-02-03T16:37:45;32.45;;;9.95;;
52284;SDS011;38238;53.304;6.606;2023-02-03T16:40:30;32.13;;;9.40;;
52284;SDS011;38238;53.304;6.606;2023-02-03T16:43:15;29.70;;;10.07;;
52284;SDS011;38238;53.304;6.606;2023-02-03T16:45:59;25.88;;;7.78;;
52284;SDS011;38238;53.304;6.606;2023-02-03T16:48:44;30.02;;;8.98;;
52284;SDS011;38238;53.304;6.606;2023-02-03T16:51:32;29.48;;;11.65;;
52284;SDS011;38238;53.304;6.606;2023-02-03T16:54:05;30.58;;;11.30;;
52284;SDS011;38238;53.304;6.606;2023-02-03T16:56:35;31.10;;;10.00;;
52284;SDS011;38238;53.304;6.606;2023-02-03T16:59:01;24.88;;;8.48;;
52284;SDS011;38238;53.304;6.606;2023-02-03T17:01:26;30.08;;;9.20;;
52284;SDS011;38238;53.304;6.606;2023-02-03T17:03:52;28.52;;;9.65;;
52284;SDS011;38238;53.304;6.606;2023-02-03T17:06:18;28.48;;;8.98;;
52284;SDS011;38238;53.304;6.606;2023-02-03T17:08:44;29.02;;;8.73;;
52284;SDS011;38238;53.304;6.606;2023-02-03T17:11:19;32.42;;;8.77;;
52284;SDS011;38238;53.304;6.606;2023-02-03T17:13:46;31.00;;;12.73;;
52284;SDS011;38238;53.304;6.606;2023-02-03T17:16:17;28.17;;;9.93;;
52284;SDS011;38238;53.304;6.606;2023-02-03T17:18:44;32.28;;;10.55;;
52284;SDS011;38238;53.304;6.606;2023-02-03T17:21:16;28.95;;;7.97;;
52284;SDS011;38238;53.304;6.606;2023-02-03T17:23:44;26.63;;;8.77;;
52284;SDS011;38238;53.304;6.606;2023-02-03T17:26:09;31.10;;;8.95;;
52284;SDS011;38238;53.304;6.606;2023-02-03T17:28:37;29.60;;;7.55;;
52284;SDS011;38238;53.304;6.606;2023-02-03T17:31:07;24.52;;;9.43;;
52284;SDS011;38238;53.304;6.606;2023-02-03T17:33:42;26.80;;;7.70;;
52284;SDS011;38238;53.304;6.606;2023-02-03T17:36:13;28.40;;;9.20;;
52284;SDS011;38238;53.304;6.606;2023-02-03T17:38:41;26.70;;;9.27;;
52284;SDS011;38238;53.304;6.606;2023-02-03T17:41:10;36.72;;;9.93;;
52284;SDS011;38238;53.304;6.606;2023-02-03T17:43:43;26.08;;;8.60;;